sensor_id;sensor_type;location;lat;lon;timestamp;P1;durP1;ratioP1;P2;durP2;ratioP2
462;SDS011;218;51.902;9.542;2022-10-16T00:01:04;4.20;;;3.90;;
462;SDS011;218;51.902;9.542;2022-10-16T00:03:32;4.10;;;3.90;;
462;SDS011;218;51.902;9.542;2022-10-16T00:06:00;4.30;;;4.00;;
462;SDS011;218;51.902;9.542;2022-10-16T00:08:27;3.87;;;3.67;;
462;SDS011;218;51.902;9.542;2022-10-16T00:10:59;4.20;;;3.90;;
462;SDS011;218;51.902;9.542;2022-10-16T00:13:28;4.10;;;3.80;;
462;SDS011;218;51.902;9.542;2022-10-16T00:15:56;4.30;;;3.90;;
462;SDS011;218;51.902;9.542;2022-10-16T00:18:24;4.60;;;4.27;;
462;SDS011;218;51.902;9.542;2022-10-16T00:20:51;4.83;;;4.53;;
462;SDS011;218;51.902;9.542;2022-10-16T00:23:19;4.90;;;4.60;;
462;SDS011;218;51.902;9.542;2022-10-16T00:25:54;4.37;;;3.97;;
462;SDS011;218;51.902;9.542;2022-10-16T00:28:23;5.20;;;4.83;;
462;SDS011;218;51.902;9.542;2022-10-16T00:30:50;5.00;;;4.60;;
462;SDS011;218;51.902;9.542;2022-10-16T00:33:18;5.10;;;4.60;;
462;SDS011;218;51.902;9.542;2022-10-16T00:35:45;5.97;;;4.33;;
462;SDS011;218;51.902;9.542;2022-10-16T00:38:12;6.87;;;4.90;;
462;SDS011;218;51.902;9.542;2022-10-16T00:40:39;5.70;;;5.20;;
462;SDS011;218;51.902;9.542;2022-10-16T00:43:09;5.27;;;4.73;;
462;SDS011;218;51.902;9.542;2022-10-16T00:45:41;4.90;;;4.60;;
462;SDS011;218;51.902;9.542;2022-10-16T00:48:11;8.00;;;4.93;;
462;SDS011;218;51.902;9.542;2022-10-16T00:50:40;9.00;;;5.07;;
462;SDS011;218;51.902;9.542;2022-10-16T00:53:09;4.97;;;4.50;;
462;SDS011;218;51.902;9.542;2022-10-16T00:55:38;5.23;;;4.77;;
462;SDS011;218;51.902;9.542;2022-10-16T00:58:05;4.73;;;4.40;;
462;SDS011;218;51.902;9.542;2022-10-16T01:00:32;4.70;;;4.40;;
462;SDS011;218;51.902;9.542;2022-10-16T01:03:01;5.63;;;5.23;;
462;SDS011;218;51.902;9.542;2022-10-16T01:05:30;5.00;;;4.60;;
462;SDS011;218;51.902;9.542;2022-10-16T01:08:02;4.93;;;4.53;;
462;SDS011;218;51.902;9.542;2022-10-16T01:10:34;5.23;;;4.83;;
462;SDS011;218;51.902;9.542;2022-10-16T01:13:06;5.30;;;4.90;;
462;SDS011;218;51.902;9.542;2022-10-16T01:15:36;5.37;;;4.97;;
462;SDS011;218;51.902;9.542;2022-10-16T01:18:10;5.00;;;4.60;;
462;SDS011;218;51.902;9.542;2022-10-16T01:20:42;4.73;;;4.43;;
462;SDS011;218;51.902;9.542;2022-10-16T01:23:21;5.67;;;5.20;;
462;SDS011;218;51.902;9.542;2022-10-16T01:25:53;5.60;;;5.20;;
462;SDS011;218;51.902;9.542;2022-10-16T01:28:32;10.17;;;5.83;;
462;SDS011;218;51.902;9.542;2022-10-16T01:31:04;5.30;;;4.90;;
462;SDS011;218;51.902;9.542;2022-10-16T01:33:34;6.20;;;5.70;;
462;SDS011;218;51.902;9.542;2022-10-16T01:36:06;5.70;;;5.20;;
462;SDS011;218;51.902;9.542;2022-10-16T01:38:38;6.20;;;5.70;;
462;SDS011;218;51.902;9.542;2022-10-16T01:41:07;8.30;;;5.70;;
462;SDS011;218;51.902;9.542;2022-10-16T01:43:39;5.83;;;5.43;;
462;SDS011;218;51.902;9.542;2022-10-16T01:46:10;6.10;;;5.60;;
462;SDS011;218;51.902;9.542;2022-10-16T01:48:39;5.43;;;5.03;;
462;SDS011;218;51.902;9.542;2022-10-16T01:51:08;5.13;;;4.77;;
462;SDS011;218;51.902;9.542;2022-10-16T01:53:37;5.27;;;4.57;;
462;SDS011;218;51.902;9.542;2022-10-16T01:56:05;9.97;;;5.03;;
462;SDS011;218;51.902;9.542;2022-10-16T01:58:36;5.10;;;4.67;;
462;SDS011;218;51.902;9.542;2022-10-16T02:01:06;5.37;;;4.97;;
462;SDS011;218;51.902;9.542;2022-10-16T02:03:35;4.97;;;4.57;;
462;SDS011;218;51.902;9.542;2022-10-16T02:06:05;5.07;;;4.67;;
462;SDS011;218;51.902;9.542;2022-10-16T02:08:34;4.60;;;4.40;;
462;SDS011;218;51.902;9.542;2022-10-16T02:11:02;4.13;;;3.93;;
462;SDS011;218;51.902;9.542;2022-10-16T02:13:30;5.47;;;4.97;;
462;SDS011;218;51.902;9.542;2022-10-16T02:16:08;6.50;;;4.50;;
462;SDS011;218;51.902;9.542;2022-10-16T02:18:36;5.57;;;4.80;;
462;SDS011;218;51.902;9.542;2022-10-16T02:21:05;5.53;;;5.03;;
462;SDS011;218;51.902;9.542;2022-10-16T02:23:40;5.03;;;4.63;;
462;SDS011;218;51.902;9.542;2022-10-16T02:26:12;4.80;;;4.50;;
462;SDS011;218;51.902;9.542;2022-10-16T02:28:44;4.87;;;4.57;;
462;SDS011;218;51.902;9.542;2022-10-16T02:31:16;4.97;;;4.67;;
462;SDS011;218;51.902;9.542;2022-10-16T02:33:45;5.57;;;4.63;;
462;SDS011;218;51.902;9.542;2022-10-16T02:36:12;5.13;;;4.73;;
462;SDS011;218;51.902;9.542;2022-10-16T02:38:40;5.13;;;4.63;;
462;SDS011;218;51.902;9.542;2022-10-16T02:41:07;5.40;;;4.97;;
462;SDS011;218;51.902;9.542;2022-10-16T02:43:35;7.10;;;5.43;;
462;SDS011;218;51.902;9.542;2022-10-16T02:46:02;7.03;;;6.43;;
462;SDS011;218;51.902;9.542;2022-10-16T02:48:30;6.60;;;5.90;;
462;SDS011;218;51.902;9.542;2022-10-16T02:50:57;6.27;;;4.73;;
462;SDS011;218;51.902;9.542;2022-10-16T02:53:24;5.53;;;5.03;;
462;SDS011;218;51.902;9.542;2022-10-16T02:55:51;5.70;;;5.20;;
462;SDS011;218;51.902;9.542;2022-10-16T02:58:18;6.80;;;5.73;;
462;SDS011;218;51.902;9.542;2022-10-16T03:00:45;5.70;;;5.40;;
462;SDS011;218;51.902;9.542;2022-10-16T03:03:12;6.13;;;5.60;;
462;SDS011;218;51.902;9.542;2022-10-16T03:05:40;5.70;;;5.07;;
462;SDS011;218;51.902;9.542;2022-10-16T03:08:10;5.80;;;5.07;;
462;SDS011;218;51.902;9.542;2022-10-16T03:10:37;5.30;;;5.00;;
462;SDS011;218;51.902;9.542;2022-10-16T03:13:04;5.53;;;5.20;;
462;SDS011;218;51.902;9.542;2022-10-16T03:15:31;6.20;;;5.20;;
462;SDS011;218;51.902;9.542;2022-10-16T03:17:58;7.17;;;6.47;;
462;SDS011;218;51.902;9.542;2022-10-16T03:20:26;6.13;;;5.60;;
462;SDS011;218;51.902;9.542;2022-10-16T03:22:54;6.67;;;6.17;;
462;SDS011;218;51.902;9.542;2022-10-16T03:25:21;7.37;;;6.77;;
462;SDS011;218;51.902;9.542;2022-10-16T03:27:48;7.27;;;6.57;;
462;SDS011;218;51.902;9.542;2022-10-16T03:30:15;6.30;;;5.80;;
462;SDS011;218;51.902;9.542;2022-10-16T03:32:43;6.53;;;6.00;;
462;SDS011;218;51.902;9.542;2022-10-16T03:35:10;8.13;;;5.40;;
462;SDS011;218;51.902;9.542;2022-10-16T03:37:37;6.83;;;6.13;;
462;SDS011;218;51.902;9.542;2022-10-16T03:40:06;6.07;;;5.67;;
462;SDS011;218;51.902;9.542;2022-10-16T03:42:33;5.90;;;5.50;;
462;SDS011;218;51.902;9.542;2022-10-16T03:45:00;5.93;;;5.40;;
462;SDS011;218;51.902;9.542;2022-10-16T03:47:27;5.93;;;5.53;;
462;SDS011;218;51.902;9.542;2022-10-16T03:49:54;5.40;;;5.00;;
462;SDS011;218;51.902;9.542;2022-10-16T03:52:21;5.60;;;5.20;;
462;SDS011;218;51.902;9.542;2022-10-16T03:54:48;4.60;;;4.30;;
462;SDS011;218;51.902;9.542;2022-10-16T03:57:16;5.50;;;5.10;;
462;SDS011;218;51.902;9.542;2022-10-16T03:59:43;5.50;;;5.10;;
462;SDS011;218;51.902;9.542;2022-10-16T04:02:10;5.43;;;4.60;;
462;SDS011;218;51.902;9.542;2022-10-16T04:04:37;5.20;;;4.80;;
462;SDS011;218;51.902;9.542;2022-10-16T04:07:04;6.30;;;4.90;;
462;SDS011;218;51.902;9.542;2022-10-16T04:09:31;4.83;;;4.53;;
462;SDS011;218;51.902;9.542;2022-10-16T04:11:58;5.53;;;5.13;;
462;SDS011;218;51.902;9.542;2022-10-16T04:14:26;6.13;;;5.63;;
462;SDS011;218;51.902;9.542;2022-10-16T04:16:53;5.63;;;5.30;;
462;SDS011;218;51.902;9.542;2022-10-16T04:19:20;5.40;;;5.10;;
462;SDS011;218;51.902;9.542;2022-10-16T04:21:48;6.20;;;5.80;;
462;SDS011;218;51.902;9.542;2022-10-16T04:24:14;6.00;;;5.60;;
462;SDS011;218;51.902;9.542;2022-10-16T04:26:42;5.90;;;5.50;;
462;SDS011;218;51.902;9.542;2022-10-16T04:29:08;6.83;;;6.13;;
462;SDS011;218;51.902;9.542;2022-10-16T04:31:37;6.17;;;5.77;;
462;SDS011;218;51.902;9.542;2022-10-16T04:34:04;7.13;;;6.53;;
462;SDS011;218;51.902;9.542;2022-10-16T04:36:31;5.37;;;5.07;;
462;SDS011;218;51.902;9.542;2022-10-16T04:38:58;6.30;;;5.87;;
462;SDS011;218;51.902;9.542;2022-10-16T04:41:25;6.70;;;6.23;;
462;SDS011;218;51.902;9.542;2022-10-16T04:43:52;6.73;;;6.33;;
462;SDS011;218;51.902;9.542;2022-10-16T04:46:19;5.83;;;5.30;;
462;SDS011;218;51.902;9.542;2022-10-16T04:48:47;4.90;;;4.60;;
462;SDS011;218;51.902;9.542;2022-10-16T04:51:14;6.40;;;6.00;;
462;SDS011;218;51.902;9.542;2022-10-16T04:53:41;5.90;;;5.50;;
462;SDS011;218;51.902;9.542;2022-10-16T04:56:08;5.87;;;5.47;;
462;SDS011;218;51.902;9.542;2022-10-16T04:58:35;5.33;;;4.93;;
462;SDS011;218;51.902;9.542;2022-10-16T05:01:02;6.67;;;6.27;;
462;SDS011;218;51.902;9.542;2022-10-16T05:03:29;6.27;;;5.87;;
462;SDS011;218;51.902;9.542;2022-10-16T05:05:57;5.80;;;5.50;;
462;SDS011;218;51.902;9.542;2022-10-16T05:08:24;6.30;;;5.90;;
462;SDS011;218;51.902;9.542;2022-10-16T05:10:51;5.60;;;5.20;;
462;SDS011;218;51.902;9.542;2022-10-16T05:13:18;5.10;;;4.80;;
462;SDS011;218;51.902;9.542;2022-10-16T05:15:46;5.87;;;5.47;;
462;SDS011;218;51.902;9.542;2022-10-16T05:18:13;5.77;;;5.37;;
462;SDS011;218;51.902;9.542;2022-10-16T05:20:40;5.93;;;5.53;;
462;SDS011;218;51.902;9.542;2022-10-16T05:23:09;5.20;;;4.90;;
462;SDS011;218;51.902;9.542;2022-10-16T05:25:36;5.53;;;5.07;;
462;SDS011;218;51.902;9.542;2022-10-16T05:28:04;6.07;;;5.47;;
462;SDS011;218;51.902;9.542;2022-10-16T05:30:31;5.93;;;5.43;;
462;SDS011;218;51.902;9.542;2022-10-16T05:32:57;4.83;;;4.50;;
462;SDS011;218;51.902;9.542;2022-10-16T05:35:25;6.40;;;5.80;;
462;SDS011;218;51.902;9.542;2022-10-16T05:37:52;6.03;;;5.53;;
462;SDS011;218;51.902;9.542;2022-10-16T05:40:20;6.60;;;6.13;;
462;SDS011;218;51.902;9.542;2022-10-16T05:42:47;5.03;;;4.73;;
462;SDS011;218;51.902;9.542;2022-10-16T05:45:14;6.00;;;5.50;;
462;SDS011;218;51.902;9.542;2022-10-16T05:47:41;5.23;;;4.93;;
462;SDS011;218;51.902;9.542;2022-10-16T05:50:08;5.23;;;4.93;;
462;SDS011;218;51.902;9.542;2022-10-16T05:52:35;14.10;;;6.07;;
462;SDS011;218;51.902;9.542;2022-10-16T05:55:02;5.33;;;5.03;;
462;SDS011;218;51.902;9.542;2022-10-16T05:57:31;4.83;;;4.53;;
462;SDS011;218;51.902;9.542;2022-10-16T05:59:58;5.07;;;4.77;;
462;SDS011;218;51.902;9.542;2022-10-16T06:02:25;4.70;;;4.40;;
462;SDS011;218;51.902;9.542;2022-10-16T06:04:52;4.73;;;4.50;;
462;SDS011;218;51.902;9.542;2022-10-16T06:07:19;5.47;;;5.17;;
462;SDS011;218;51.902;9.542;2022-10-16T06:09:47;5.07;;;4.67;;
462;SDS011;218;51.902;9.542;2022-10-16T06:12:15;5.10;;;4.80;;
462;SDS011;218;51.902;9.542;2022-10-16T06:14:43;5.03;;;4.73;;
462;SDS011;218;51.902;9.542;2022-10-16T06:17:11;5.27;;;4.97;;
462;SDS011;218;51.902;9.542;2022-10-16T06:19:38;5.00;;;4.70;;
462;SDS011;218;51.902;9.542;2022-10-16T06:22:06;10.00;;;9.20;;
462;SDS011;218;51.902;9.542;2022-10-16T06:24:33;12.33;;;9.37;;
462;SDS011;218;51.902;9.542;2022-10-16T06:27:00;8.63;;;7.93;;
462;SDS011;218;51.902;9.542;2022-10-16T06:29:27;7.70;;;7.10;;
462;SDS011;218;51.902;9.542;2022-10-16T06:31:55;6.47;;;5.97;;
462;SDS011;218;51.902;9.542;2022-10-16T06:34:22;6.23;;;5.73;;
462;SDS011;218;51.902;9.542;2022-10-16T06:36:49;12.77;;;11.67;;
462;SDS011;218;51.902;9.542;2022-10-16T06:39:16;15.77;;;14.37;;
462;SDS011;218;51.902;9.542;2022-10-16T06:41:43;13.60;;;12.40;;
462;SDS011;218;51.902;9.542;2022-10-16T06:44:10;12.03;;;11.03;;
462;SDS011;218;51.902;9.542;2022-10-16T06:46:37;10.17;;;9.33;;
462;SDS011;218;51.902;9.542;2022-10-16T06:49:05;8.90;;;8.20;;
462;SDS011;218;51.902;9.542;2022-10-16T06:51:32;8.73;;;8.03;;
462;SDS011;218;51.902;9.542;2022-10-16T06:54:01;6.77;;;6.13;;
462;SDS011;218;51.902;9.542;2022-10-16T06:56:28;7.47;;;6.97;;
462;SDS011;218;51.902;9.542;2022-10-16T06:58:56;6.60;;;6.20;;
462;SDS011;218;51.902;9.542;2022-10-16T07:01:23;6.73;;;6.33;;
462;SDS011;218;51.902;9.542;2022-10-16T07:03:51;5.80;;;5.40;;
462;SDS011;218;51.902;9.542;2022-10-16T07:06:21;5.90;;;5.50;;
462;SDS011;218;51.902;9.542;2022-10-16T07:08:49;5.63;;;5.23;;
462;SDS011;218;51.902;9.542;2022-10-16T07:11:16;4.57;;;4.27;;
462;SDS011;218;51.902;9.542;2022-10-16T07:13:45;5.20;;;4.90;;
462;SDS011;218;51.902;9.542;2022-10-16T07:16:14;6.43;;;5.87;;
462;SDS011;218;51.902;9.542;2022-10-16T07:18:43;5.23;;;4.80;;
462;SDS011;218;51.902;9.542;2022-10-16T07:21:12;5.33;;;5.00;;
462;SDS011;218;51.902;9.542;2022-10-16T07:23:45;4.07;;;3.83;;
462;SDS011;218;51.902;9.542;2022-10-16T07:26:15;5.20;;;4.80;;
462;SDS011;218;51.902;9.542;2022-10-16T07:28:42;6.23;;;5.83;;
462;SDS011;218;51.902;9.542;2022-10-16T07:31:10;6.00;;;5.70;;
462;SDS011;218;51.902;9.542;2022-10-16T07:33:38;6.80;;;6.30;;
462;SDS011;218;51.902;9.542;2022-10-16T07:36:07;7.83;;;7.20;;
462;SDS011;218;51.902;9.542;2022-10-16T07:38:34;6.47;;;6.07;;
462;SDS011;218;51.902;9.542;2022-10-16T07:41:02;6.27;;;5.70;;
462;SDS011;218;51.902;9.542;2022-10-16T07:43:31;6.67;;;6.20;;
462;SDS011;218;51.902;9.542;2022-10-16T07:45:58;6.87;;;6.47;;
462;SDS011;218;51.902;9.542;2022-10-16T07:48:28;5.63;;;5.27;;
462;SDS011;218;51.902;9.542;2022-10-16T07:50:57;5.63;;;5.33;;
462;SDS011;218;51.902;9.542;2022-10-16T07:53:25;5.10;;;4.70;;
462;SDS011;218;51.902;9.542;2022-10-16T07:55:52;4.63;;;4.33;;
462;SDS011;218;51.902;9.542;2022-10-16T07:58:24;5.83;;;5.37;;
462;SDS011;218;51.902;9.542;2022-10-16T08:00:51;5.30;;;4.93;;
462;SDS011;218;51.902;9.542;2022-10-16T08:03:17;5.47;;;5.00;;
462;SDS011;218;51.902;9.542;2022-10-16T08:05:44;4.13;;;3.80;;
462;SDS011;218;51.902;9.542;2022-10-16T08:08:15;3.90;;;3.70;;
462;SDS011;218;51.902;9.542;2022-10-16T08:10:44;3.73;;;3.50;;
462;SDS011;218;51.902;9.542;2022-10-16T08:13:12;4.07;;;3.77;;
462;SDS011;218;51.902;9.542;2022-10-16T08:15:41;4.53;;;4.33;;
462;SDS011;218;51.902;9.542;2022-10-16T08:18:08;3.90;;;3.70;;
462;SDS011;218;51.902;9.542;2022-10-16T08:20:36;4.40;;;4.10;;
462;SDS011;218;51.902;9.542;2022-10-16T08:23:03;3.33;;;3.13;;
462;SDS011;218;51.902;9.542;2022-10-16T08:25:30;3.63;;;3.43;;
462;SDS011;218;51.902;9.542;2022-10-16T08:27:57;3.97;;;3.77;;
462;SDS011;218;51.902;9.542;2022-10-16T08:30:24;4.70;;;4.40;;
462;SDS011;218;51.902;9.542;2022-10-16T08:32:53;5.37;;;5.07;;
462;SDS011;218;51.902;9.542;2022-10-16T08:35:20;3.87;;;3.67;;
462;SDS011;218;51.902;9.542;2022-10-16T08:37:47;3.37;;;3.20;;
462;SDS011;218;51.902;9.542;2022-10-16T08:40:16;2.80;;;2.60;;
462;SDS011;218;51.902;9.542;2022-10-16T08:42:58;5.43;;;3.03;;
462;SDS011;218;51.902;9.542;2022-10-16T08:45:49;2.30;;;2.20;;
462;SDS011;218;51.902;9.542;2022-10-16T08:48:33;2.90;;;2.70;;
462;SDS011;218;51.902;9.542;2022-10-16T08:51:07;2.20;;;2.10;;
462;SDS011;218;51.902;9.542;2022-10-16T08:53:36;3.37;;;2.17;;
462;SDS011;218;51.902;9.542;2022-10-16T08:56:09;2.80;;;2.70;;
462;SDS011;218;51.902;9.542;2022-10-16T08:58:36;2.70;;;2.60;;
462;SDS011;218;51.902;9.542;2022-10-16T09:01:03;2.50;;;2.40;;
462;SDS011;218;51.902;9.542;2022-10-16T09:03:42;2.53;;;2.30;;
462;SDS011;218;51.902;9.542;2022-10-16T09:06:31;2.27;;;2.17;;
462;SDS011;218;51.902;9.542;2022-10-16T09:09:15;2.20;;;2.10;;
462;SDS011;218;51.902;9.542;2022-10-16T09:11:55;2.00;;;1.90;;
462;SDS011;218;51.902;9.542;2022-10-16T09:14:35;2.40;;;2.20;;
462;SDS011;218;51.902;9.542;2022-10-16T09:17:30;2.20;;;1.93;;
462;SDS011;218;51.902;9.542;2022-10-16T09:20:17;3.77;;;1.90;;
462;SDS011;218;51.902;9.542;2022-10-16T09:22:48;2.30;;;2.00;;
462;SDS011;218;51.902;9.542;2022-10-16T09:25:18;2.10;;;2.00;;
462;SDS011;218;51.902;9.542;2022-10-16T09:27:48;2.60;;;2.40;;
462;SDS011;218;51.902;9.542;2022-10-16T09:30:19;3.00;;;2.10;;
462;SDS011;218;51.902;9.542;2022-10-16T09:32:48;2.10;;;1.90;;
462;SDS011;218;51.902;9.542;2022-10-16T09:35:24;2.53;;;1.67;;
462;SDS011;218;51.902;9.542;2022-10-16T09:37:58;2.03;;;1.93;;
462;SDS011;218;51.902;9.542;2022-10-16T09:40:26;2.40;;;2.17;;
462;SDS011;218;51.902;9.542;2022-10-16T09:42:57;4.50;;;2.40;;
462;SDS011;218;51.902;9.542;2022-10-16T09:45:29;2.63;;;2.23;;
462;SDS011;218;51.902;9.542;2022-10-16T09:47:56;1.90;;;1.80;;
462;SDS011;218;51.902;9.542;2022-10-16T09:50:25;2.40;;;2.20;;
462;SDS011;218;51.902;9.542;2022-10-16T09:53:08;2.03;;;1.80;;
462;SDS011;218;51.902;9.542;2022-10-16T09:55:47;2.37;;;2.17;;
462;SDS011;218;51.902;9.542;2022-10-16T09:58:15;2.10;;;2.00;;
462;SDS011;218;51.902;9.542;2022-10-16T10:00:42;2.00;;;1.90;;
462;SDS011;218;51.902;9.542;2022-10-16T10:03:19;2.10;;;1.70;;
462;SDS011;218;51.902;9.542;2022-10-16T10:06:00;2.00;;;1.90;;
462;SDS011;218;51.902;9.542;2022-10-16T10:08:31;2.37;;;1.80;;
462;SDS011;218;51.902;9.542;2022-10-16T10:10:58;2.83;;;2.30;;
462;SDS011;218;51.902;9.542;2022-10-16T10:13:25;5.40;;;1.90;;
462;SDS011;218;51.902;9.542;2022-10-16T10:15:52;3.37;;;1.97;;
462;SDS011;218;51.902;9.542;2022-10-16T10:18:21;2.03;;;1.80;;
462;SDS011;218;51.902;9.542;2022-10-16T10:20:56;2.00;;;1.90;;
462;SDS011;218;51.902;9.542;2022-10-16T10:23:26;1.77;;;1.67;;
462;SDS011;218;51.902;9.542;2022-10-16T10:25:56;1.80;;;1.70;;
462;SDS011;218;51.902;9.542;2022-10-16T10:31:23;2.50;;;1.90;;
462;SDS011;218;51.902;9.542;2022-10-16T10:33:55;2.17;;;1.80;;
462;SDS011;218;51.902;9.542;2022-10-16T10:36:29;1.80;;;1.70;;
462;SDS011;218;51.902;9.542;2022-10-16T10:39:00;1.77;;;1.67;;
462;SDS011;218;51.902;9.542;2022-10-16T10:44:44;1.70;;;1.60;;
462;SDS011;218;51.902;9.542;2022-10-16T10:47:25;2.10;;;2.00;;
462;SDS011;218;51.902;9.542;2022-10-16T10:50:01;1.50;;;1.40;;
462;SDS011;218;51.902;9.542;2022-10-16T10:52:35;1.83;;;1.60;;
462;SDS011;218;51.902;9.542;2022-10-16T10:55:21;2.10;;;1.90;;
462;SDS011;218;51.902;9.542;2022-10-16T10:58:01;1.73;;;1.63;;
462;SDS011;218;51.902;9.542;2022-10-16T11:01:00;2.10;;;1.93;;
462;SDS011;218;51.902;9.542;2022-10-16T11:06:28;1.50;;;1.40;;
462;SDS011;218;51.902;9.542;2022-10-16T11:08:59;2.60;;;1.40;;
462;SDS011;218;51.902;9.542;2022-10-16T11:11:34;3.27;;;1.50;;
462;SDS011;218;51.902;9.542;2022-10-16T11:14:09;1.60;;;1.50;;
462;SDS011;218;51.902;9.542;2022-10-16T11:16:42;2.63;;;1.10;;
462;SDS011;218;51.902;9.542;2022-10-16T11:19:14;3.00;;;1.60;;
462;SDS011;218;51.902;9.542;2022-10-16T11:21:54;2.03;;;1.93;;
462;SDS011;218;51.902;9.542;2022-10-16T11:24:29;1.30;;;1.17;;
462;SDS011;218;51.902;9.542;2022-10-16T11:27:07;1.67;;;1.57;;
462;SDS011;218;51.902;9.542;2022-10-16T11:29:35;1.70;;;1.60;;
462;SDS011;218;51.902;9.542;2022-10-16T11:32:13;1.37;;;1.30;;
462;SDS011;218;51.902;9.542;2022-10-16T11:34:47;1.43;;;1.33;;
462;SDS011;218;51.902;9.542;2022-10-16T11:37:18;1.60;;;1.50;;
462;SDS011;218;51.902;9.542;2022-10-16T11:39:49;1.50;;;1.47;;
462;SDS011;218;51.902;9.542;2022-10-16T11:42:20;2.33;;;1.60;;
462;SDS011;218;51.902;9.542;2022-10-16T11:44:54;2.10;;;2.00;;
462;SDS011;218;51.902;9.542;2022-10-16T11:47:27;1.93;;;1.73;;
462;SDS011;218;51.902;9.542;2022-10-16T11:50:00;2.03;;;1.70;;
462;SDS011;218;51.902;9.542;2022-10-16T11:52:32;2.53;;;1.80;;
462;SDS011;218;51.902;9.542;2022-10-16T11:55:06;1.67;;;1.57;;
462;SDS011;218;51.902;9.542;2022-10-16T11:57:44;1.70;;;1.60;;
462;SDS011;218;51.902;9.542;2022-10-16T12:00:17;2.30;;;1.60;;
462;SDS011;218;51.902;9.542;2022-10-16T12:02:50;1.80;;;1.60;;
462;SDS011;218;51.902;9.542;2022-10-16T12:05:27;1.70;;;1.60;;
462;SDS011;218;51.902;9.542;2022-10-16T12:08:03;1.70;;;1.60;;
462;SDS011;218;51.902;9.542;2022-10-16T12:10:34;1.40;;;1.30;;
462;SDS011;218;51.902;9.542;2022-10-16T12:13:03;1.73;;;1.63;;
462;SDS011;218;51.902;9.542;2022-10-16T12:15:31;1.77;;;1.67;;
462;SDS011;218;51.902;9.542;2022-10-16T12:18:00;1.53;;;1.43;;
462;SDS011;218;51.902;9.542;2022-10-16T12:20:28;1.30;;;1.20;;
462;SDS011;218;51.902;9.542;2022-10-16T12:22:58;1.60;;;1.40;;
462;SDS011;218;51.902;9.542;2022-10-16T12:25:27;2.07;;;1.80;;
462;SDS011;218;51.902;9.542;2022-10-16T12:28:00;1.80;;;1.67;;
462;SDS011;218;51.902;9.542;2022-10-16T12:30:31;1.53;;;1.43;;
462;SDS011;218;51.902;9.542;2022-10-16T12:33:00;1.70;;;1.60;;
462;SDS011;218;51.902;9.542;2022-10-16T12:35:30;1.40;;;1.30;;
462;SDS011;218;51.902;9.542;2022-10-16T12:38:06;2.67;;;1.20;;
462;SDS011;218;51.902;9.542;2022-10-16T12:40:39;1.60;;;1.30;;
462;SDS011;218;51.902;9.542;2022-10-16T12:43:26;2.40;;;1.60;;
462;SDS011;218;51.902;9.542;2022-10-16T12:46:19;1.27;;;0.93;;
462;SDS011;218;51.902;9.542;2022-10-16T12:49:20;1.37;;;1.27;;
462;SDS011;218;51.902;9.542;2022-10-16T12:51:55;1.20;;;1.10;;
462;SDS011;218;51.902;9.542;2022-10-16T12:54:25;1.47;;;1.37;;
462;SDS011;218;51.902;9.542;2022-10-16T12:56:58;1.27;;;1.17;;
462;SDS011;218;51.902;9.542;2022-10-16T12:59:53;0.97;;;0.97;;
462;SDS011;218;51.902;9.542;2022-10-16T13:02:44;2.00;;;1.47;;
462;SDS011;218;51.902;9.542;2022-10-16T13:05:30;1.30;;;1.20;;
462;SDS011;218;51.902;9.542;2022-10-16T13:08:09;1.00;;;1.00;;
462;SDS011;218;51.902;9.542;2022-10-16T13:10:51;1.87;;;1.40;;
462;SDS011;218;51.902;9.542;2022-10-16T13:13:44;2.33;;;1.30;;
462;SDS011;218;51.902;9.542;2022-10-16T13:16:22;2.10;;;1.37;;
462;SDS011;218;51.902;9.542;2022-10-16T13:18:59;1.83;;;1.60;;
462;SDS011;218;51.902;9.542;2022-10-16T13:21:38;1.30;;;1.20;;
462;SDS011;218;51.902;9.542;2022-10-16T13:24:18;1.60;;;1.50;;
462;SDS011;218;51.902;9.542;2022-10-16T13:26:52;1.43;;;1.00;;
462;SDS011;218;51.902;9.542;2022-10-16T13:29:23;1.30;;;1.20;;
462;SDS011;218;51.902;9.542;2022-10-16T13:31:50;1.30;;;1.13;;
462;SDS011;218;51.902;9.542;2022-10-16T13:34:20;1.17;;;1.07;;
462;SDS011;218;51.902;9.542;2022-10-16T13:36:48;1.33;;;1.23;;
462;SDS011;218;51.902;9.542;2022-10-16T13:39:20;1.17;;;1.07;;
462;SDS011;218;51.902;9.542;2022-10-16T13:41:57;2.03;;;1.47;;
462;SDS011;218;51.902;9.542;2022-10-16T13:44:35;2.07;;;1.37;;
462;SDS011;218;51.902;9.542;2022-10-16T13:47:10;0.97;;;0.97;;
462;SDS011;218;51.902;9.542;2022-10-16T13:49:43;2.00;;;1.23;;
462;SDS011;218;51.902;9.542;2022-10-16T13:52:17;1.20;;;1.10;;
462;SDS011;218;51.902;9.542;2022-10-16T13:54:45;1.30;;;1.07;;
462;SDS011;218;51.902;9.542;2022-10-16T13:57:13;1.70;;;1.60;;
462;SDS011;218;51.902;9.542;2022-10-16T13:59:41;1.70;;;1.10;;
462;SDS011;218;51.902;9.542;2022-10-16T14:02:17;1.70;;;1.30;;
462;SDS011;218;51.902;9.542;2022-10-16T14:04:49;1.57;;;1.47;;
462;SDS011;218;51.902;9.542;2022-10-16T14:07:18;1.20;;;1.10;;
462;SDS011;218;51.902;9.542;2022-10-16T14:09:49;1.23;;;1.13;;
462;SDS011;218;51.902;9.542;2022-10-16T14:12:17;1.57;;;1.10;;
462;SDS011;218;51.902;9.542;2022-10-16T14:14:45;1.43;;;1.27;;
462;SDS011;218;51.902;9.542;2022-10-16T14:17:14;3.00;;;1.30;;
462;SDS011;218;51.902;9.542;2022-10-16T14:19:44;1.40;;;1.30;;
462;SDS011;218;51.902;9.542;2022-10-16T14:22:22;1.40;;;1.20;;
462;SDS011;218;51.902;9.542;2022-10-16T14:24:55;1.37;;;1.10;;
462;SDS011;218;51.902;9.542;2022-10-16T14:27:27;1.10;;;1.00;;
462;SDS011;218;51.902;9.542;2022-10-16T14:30:08;1.20;;;1.10;;
462;SDS011;218;51.902;9.542;2022-10-16T14:32:40;1.27;;;0.93;;
462;SDS011;218;51.902;9.542;2022-10-16T14:35:21;1.33;;;1.17;;
462;SDS011;218;51.902;9.542;2022-10-16T14:37:54;1.10;;;1.00;;
462;SDS011;218;51.902;9.542;2022-10-16T14:40:23;1.30;;;1.20;;
462;SDS011;218;51.902;9.542;2022-10-16T14:42:52;1.40;;;1.30;;
462;SDS011;218;51.902;9.542;2022-10-16T14:45:20;1.40;;;1.30;;
462;SDS011;218;51.902;9.542;2022-10-16T14:47:50;1.00;;;1.00;;
462;SDS011;218;51.902;9.542;2022-10-16T14:50:19;2.27;;;1.30;;
462;SDS011;218;51.902;9.542;2022-10-16T14:52:46;1.13;;;1.03;;
462;SDS011;218;51.902;9.542;2022-10-16T14:55:14;1.90;;;1.17;;
462;SDS011;218;51.902;9.542;2022-10-16T14:57:42;2.13;;;0.90;;
462;SDS011;218;51.902;9.542;2022-10-16T15:00:15;1.70;;;1.10;;
462;SDS011;218;51.902;9.542;2022-10-16T15:02:44;1.83;;;0.90;;
462;SDS011;218;51.902;9.542;2022-10-16T15:05:14;1.63;;;1.00;;
462;SDS011;218;51.902;9.542;2022-10-16T15:07:43;0.93;;;0.93;;
462;SDS011;218;51.902;9.542;2022-10-16T15:10:10;1.60;;;1.23;;
462;SDS011;218;51.902;9.542;2022-10-16T15:12:39;1.07;;;0.93;;
462;SDS011;218;51.902;9.542;2022-10-16T15:17:54;1.30;;;1.20;;
462;SDS011;218;51.902;9.542;2022-10-16T15:20:22;1.20;;;1.10;;
462;SDS011;218;51.902;9.542;2022-10-16T15:22:49;1.63;;;1.20;;
462;SDS011;218;51.902;9.542;2022-10-16T15:25:24;1.47;;;1.27;;
462;SDS011;218;51.902;9.542;2022-10-16T15:27:58;8.70;;;2.40;;
462;SDS011;218;51.902;9.542;2022-10-16T15:30:25;2.00;;;1.30;;
462;SDS011;218;51.902;9.542;2022-10-16T15:32:53;1.70;;;1.60;;
462;SDS011;218;51.902;9.542;2022-10-16T15:35:20;2.20;;;1.47;;
462;SDS011;218;51.902;9.542;2022-10-16T15:37:47;2.60;;;1.70;;
462;SDS011;218;51.902;9.542;2022-10-16T15:40:15;1.40;;;1.30;;
462;SDS011;218;51.902;9.542;2022-10-16T15:42:42;1.20;;;1.20;;
462;SDS011;218;51.902;9.542;2022-10-16T15:45:11;2.73;;;1.70;;
462;SDS011;218;51.902;9.542;2022-10-16T15:47:40;1.47;;;1.37;;
462;SDS011;218;51.902;9.542;2022-10-16T15:50:09;1.30;;;1.20;;
462;SDS011;218;51.902;9.542;2022-10-16T15:52:37;1.73;;;1.27;;
462;SDS011;218;51.902;9.542;2022-10-16T15:55:05;2.63;;;1.30;;
462;SDS011;218;51.902;9.542;2022-10-16T15:57:36;1.50;;;1.40;;
462;SDS011;218;51.902;9.542;2022-10-16T16:00:06;2.17;;;1.30;;
462;SDS011;218;51.902;9.542;2022-10-16T16:02:36;1.70;;;1.50;;
462;SDS011;218;51.902;9.542;2022-10-16T16:05:03;2.50;;;1.50;;
462;SDS011;218;51.902;9.542;2022-10-16T16:07:32;1.83;;;1.73;;
462;SDS011;218;51.902;9.542;2022-10-16T16:10:00;2.33;;;1.97;;
462;SDS011;218;51.902;9.542;2022-10-16T16:12:27;2.90;;;1.40;;
462;SDS011;218;51.902;9.542;2022-10-16T16:14:54;2.00;;;1.80;;
462;SDS011;218;51.902;9.542;2022-10-16T16:17:21;2.00;;;1.70;;